createdAt,value
2023-05-24T00:01:38.539Z,12.32
2023-05-24T00:04:06.698Z,14.13
2023-05-24T00:06:36.501Z,12.00
2023-05-24T00:09:06.339Z,13.68
2023-05-24T00:11:34.816Z,12.73
2023-05-24T00:14:03.100Z,11.77
2023-05-24T00:16:31.360Z,16.85
2023-05-24T00:18:59.387Z,13.40
2023-05-24T00:21:27.557Z,10.77
2023-05-24T00:23:55.895Z,10.80
2023-05-24T00:26:26.218Z,14.32
2023-05-24T00:28:56.330Z,10.88
2023-05-24T00:31:24.533Z,11.65
2023-05-24T00:33:52.637Z,12.15
2023-05-24T00:36:23.621Z,9.82
2023-05-24T00:38:54.067Z,14.60
2023-05-24T00:41:22.316Z,12.90
2023-05-24T00:43:52.544Z,15.13
2023-05-24T00:46:23.329Z,11.85
2023-05-24T00:48:52.585Z,12.88
2023-05-24T00:51:20.847Z,14.80
2023-05-24T00:53:50.550Z,12.95
2023-05-24T00:56:21.039Z,11.30
2023-05-24T00:58:50.607Z,11.05
2023-05-24T01:01:20.311Z,14.73
2023-05-24T01:03:48.814Z,15.70
2023-05-24T01:06:18.872Z,18.60
2023-05-24T01:09:03.223Z,12.15
2023-05-24T01:11:42.207Z,12.40
2023-05-24T01:14:21.378Z,13.60
2023-05-24T01:17:03.223Z,14.50
2023-05-24T01:19:51.309Z,9.73
2023-05-24T01:22:41.164Z,14.93
2023-05-24T01:25:30.114Z,13.70
2023-05-24T01:28:04.629Z,12.18
2023-05-24T01:30:34.219Z,13.52
2023-05-24T01:33:04.094Z,15.82
2023-05-24T01:35:32.260Z,15.82
2023-05-24T01:38:00.472Z,20.02
2023-05-24T01:40:28.780Z,15.02
2023-05-24T01:43:05.744Z,13.07
2023-05-24T01:45:41.102Z,14.55
2023-05-24T01:48:19.395Z,12.32
2023-05-24T01:50:51.289Z,14.43
2023-05-24T01:53:22.084Z,11.23
2023-05-24T01:55:55.217Z,12.10
2023-05-24T01:58:27.209Z,13.05
2023-05-24T02:00:56.159Z,16.33
2023-05-24T02:03:24.653Z,15.45
2023-05-24T02:05:53.074Z,12.48
2023-05-24T02:08:21.354Z,13.82
2023-05-24T02:10:50.704Z,13.27
2023-05-24T02:13:20.085Z,13.55
2023-05-24T02:15:50.069Z,16.83
2023-05-24T02:18:19.113Z,13.90
2023-05-24T02:20:47.406Z,17.25
2023-05-24T02:23:15.569Z,12.48
2023-05-24T02:25:43.622Z,16.20
2023-05-24T02:28:11.742Z,15.70
2023-05-24T02:30:40.043Z,12.65
2023-05-24T02:33:09.899Z,11.85
2023-05-24T02:35:38.474Z,12.25
2023-05-24T02:38:06.969Z,15.00
2023-05-24T02:40:37.520Z,17.58
2023-05-24T02:43:05.636Z,14.55
2023-05-24T02:45:33.898Z,13.45
2023-05-24T02:48:02.091Z,14.82
2023-05-24T02:50:31.854Z,10.55
2023-05-24T02:52:59.914Z,13.18
2023-05-24T02:55:29.216Z,15.93
2023-05-24T02:57:57.144Z,14.38
2023-05-24T03:00:25.247Z,13.95
2023-05-24T03:02:53.170Z,11.88
2023-05-24T03:05:21.152Z,16.40
2023-05-24T03:07:55.009Z,12.15
2023-05-24T03:10:23.436Z,14.20
2023-05-24T03:12:52.228Z,14.15
2023-05-24T03:15:21.378Z,10.20
2023-05-24T03:17:50.264Z,14.32
2023-05-24T03:20:21.343Z,15.55
2023-05-24T03:22:51.429Z,16.92
2023-05-24T03:25:20.403Z,18.98
2023-05-24T03:27:48.693Z,14.35
2023-05-24T03:30:20.282Z,14.38
2023-05-24T03:32:48.421Z,14.20
2023-05-24T03:35:18.928Z,18.10
2023-05-24T03:37:47.536Z,16.27
2023-05-24T03:40:34.809Z,15.57
2023-05-24T03:43:04.634Z,19.98
2023-05-24T03:45:39.130Z,20.73
2023-05-24T03:48:08.711Z,14.30
2023-05-24T03:50:39.346Z,15.55
2023-05-24T03:53:07.604Z,13.10
2023-05-24T03:55:39.376Z,13.60
2023-05-24T03:58:07.877Z,18.52
2023-05-24T04:00:38.160Z,17.00
2023-05-24T04:03:07.624Z,16.88
2023-05-24T04:05:37.628Z,23.42
2023-05-24T04:08:05.738Z,11.35
2023-05-24T04:10:34.477Z,15.43
2023-05-24T04:13:04.777Z,14.38
2023-05-24T04:15:34.860Z,12.43
2023-05-24T04:18:03.412Z,12.48
2023-05-24T04:20:32.311Z,13.75
2023-05-24T04:23:01.037Z,17.42
2023-05-24T04:25:29.676Z,16.30
2023-05-24T04:27:57.888Z,15.70
2023-05-24T04:30:29.889Z,17.77
2023-05-24T04:32:58.478Z,13.95
2023-05-24T04:35:28.204Z,18.02
2023-05-24T04:37:56.623Z,16.00
2023-05-24T04:40:25.204Z,18.83
2023-05-24T04:42:55.584Z,18.83
2023-05-24T04:45:24.036Z,16.80
2023-05-24T04:47:53.810Z,23.13
2023-05-24T04:50:21.971Z,21.60
2023-05-24T04:52:50.239Z,16.95
2023-05-24T04:55:18.506Z,21.30
2023-05-24T04:57:46.766Z,20.58
2023-05-24T05:00:15.752Z,21.02
2023-05-24T05:02:44.072Z,19.90
2023-05-24T05:05:14.985Z,21.65
2023-05-24T05:07:45.165Z,23.55
2023-05-24T05:10:14.032Z,21.67
2023-05-24T05:12:42.794Z,18.38
2023-05-24T05:15:13.574Z,20.65
2023-05-24T05:17:43.240Z,19.98
2023-05-24T05:20:12.922Z,20.75
2023-05-24T05:22:47.211Z,18.17
2023-05-24T05:25:16.765Z,17.13
2023-05-24T05:27:45.289Z,19.90
2023-05-24T05:30:14.145Z,19.15
2023-05-24T05:32:42.455Z,21.90
2023-05-24T05:35:11.047Z,23.05
2023-05-24T05:37:39.128Z,29.13
2023-05-24T05:40:10.693Z,23.05
2023-05-24T05:42:38.688Z,20.98
2023-05-24T05:45:08.031Z,21.70
2023-05-24T05:47:36.870Z,16.52
2023-05-24T05:50:05.354Z,24.90
2023-05-24T05:52:33.589Z,21.92
2023-05-24T05:55:01.809Z,19.05
2023-05-24T05:57:31.459Z,20.58
2023-05-24T05:59:59.528Z,19.60
2023-05-24T06:02:27.549Z,18.45
2023-05-24T06:04:55.659Z,27.73
2023-05-24T06:07:23.787Z,20.88
2023-05-24T06:09:51.854Z,24.75
2023-05-24T06:12:20.004Z,22.75
2023-05-24T06:14:50.869Z,22.08
2023-05-24T06:17:19.114Z,19.42
2023-05-24T06:19:46.992Z,17.55
2023-05-24T06:22:14.952Z,16.95
2023-05-24T06:24:43.867Z,18.23
2023-05-24T06:27:22.697Z,21.38
2023-05-24T06:29:52.536Z,19.38
2023-05-24T06:32:21.218Z,24.15
2023-05-24T06:34:53.647Z,19.73
2023-05-24T06:37:26.396Z,23.48
2023-05-24T06:39:54.597Z,18.58
2023-05-24T06:42:22.862Z,23.55
2023-05-24T06:44:52.733Z,20.27
2023-05-24T06:47:20.956Z,17.80
2023-05-24T06:49:50.290Z,19.00
2023-05-24T06:52:18.652Z,22.40
2023-05-24T06:54:46.850Z,21.90
2023-05-24T06:57:15.546Z,20.70
2023-05-24T06:59:43.868Z,21.83
2023-05-24T07:02:14.016Z,18.90
2023-05-24T07:04:42.604Z,14.93
2023-05-24T07:10:02.964Z,14.03
2023-05-24T07:12:32.748Z,22.13
2023-05-24T07:15:00.860Z,17.95
2023-05-24T07:17:31.167Z,17.42
2023-05-24T07:19:59.610Z,15.13
2023-05-24T07:22:29.503Z,17.67
2023-05-24T07:24:57.883Z,16.80
2023-05-24T07:27:26.289Z,16.85
2023-05-24T07:29:54.806Z,14.45
2023-05-24T07:32:23.411Z,15.95
2023-05-24T07:34:54.800Z,17.17
2023-05-24T07:37:24.470Z,17.20
2023-05-24T07:39:54.181Z,19.15
2023-05-24T07:42:22.810Z,17.40
2023-05-24T07:44:51.130Z,18.80
2023-05-24T07:47:19.703Z,16.38
2023-05-24T07:49:48.033Z,22.50
2023-05-24T07:52:20.476Z,20.42
2023-05-24T07:57:27.353Z,19.80
2023-05-24T07:59:55.537Z,21.10
2023-05-24T08:02:26.110Z,16.33
2023-05-24T08:04:54.490Z,18.08
2023-05-24T08:07:24.419Z,15.60
2023-05-24T08:09:52.915Z,18.65
2023-05-24T08:12:22.810Z,20.13
2023-05-24T08:14:50.682Z,14.63
2023-05-24T08:17:18.652Z,17.83
2023-05-24T08:19:46.808Z,16.73
2023-05-24T08:22:14.916Z,16.23
2023-05-24T08:24:45.948Z,16.80
2023-05-24T08:27:14.196Z,19.00
2023-05-24T08:29:42.299Z,14.85
2023-05-24T08:32:10.969Z,15.18
2023-05-24T08:34:39.259Z,15.85
2023-05-24T08:37:07.241Z,11.82
2023-05-24T08:39:40.634Z,11.75
2023-05-24T08:42:11.127Z,15.45
2023-05-24T08:44:43.831Z,13.15
2023-05-24T08:47:13.970Z,13.40
2023-05-24T08:49:47.749Z,20.75
2023-05-24T08:52:15.970Z,17.50
2023-05-24T08:54:44.901Z,16.85
2023-05-24T08:57:15.252Z,12.88
2023-05-24T08:59:44.197Z,14.00
2023-05-24T09:02:15.125Z,11.98
2023-05-24T09:04:45.023Z,15.45
2023-05-24T09:07:15.282Z,14.85
2023-05-24T09:09:45.566Z,16.60
2023-05-24T09:12:35.430Z,17.75
2023-05-24T09:15:08.524Z,16.13
2023-05-24T09:17:41.869Z,14.38
2023-05-24T09:20:12.016Z,13.30
2023-05-24T09:22:44.232Z,16.50
2023-05-24T09:25:15.551Z,13.00
2023-05-24T09:27:50.483Z,12.05
2023-05-24T09:30:19.970Z,14.82
2023-05-24T09:32:59.466Z,13.60
2023-05-24T09:35:28.402Z,13.60
2023-05-24T09:38:00.260Z,14.10
2023-05-24T09:40:32.564Z,12.90
2023-05-24T09:49:55.142Z,15.95
2023-05-24T09:52:52.884Z,14.45
2023-05-24T09:55:42.512Z,16.15
2023-05-24T09:58:18.767Z,14.43
2023-05-24T10:00:47.520Z,14.32
2023-05-24T10:03:18.392Z,11.07
2023-05-24T10:05:48.880Z,13.98
2023-05-24T10:08:19.762Z,12.02
2023-05-24T10:10:50.474Z,11.65
2023-05-24T10:13:26.026Z,12.27
2023-05-24T10:15:57.180Z,14.00
2023-05-24T10:18:27.097Z,12.15
2023-05-24T10:20:57.437Z,10.20
2023-05-24T10:23:28.703Z,14.13
2023-05-24T10:26:06.842Z,11.55
2023-05-24T10:28:42.530Z,11.02
2023-05-24T10:31:22.649Z,11.32
2023-05-24T10:34:06.534Z,12.68
2023-05-24T10:36:51.896Z,10.40
2023-05-24T10:39:30.941Z,8.60
2023-05-24T10:42:03.457Z,9.95
2023-05-24T10:44:39.846Z,10.55
2023-05-24T10:47:16.184Z,13.38
2023-05-24T10:49:51.784Z,12.20
2023-05-24T10:52:35.088Z,14.05
2023-05-24T10:55:11.328Z,11.55
2023-05-24T10:57:42.010Z,11.00
2023-05-24T11:00:41.555Z,8.80
2023-05-24T11:03:20.024Z,11.23
2023-05-24T11:05:55.306Z,12.55
2023-05-24T11:08:26.422Z,13.10
2023-05-24T11:11:25.637Z,11.00
2023-05-24T11:13:58.966Z,10.13
2023-05-24T11:16:42.829Z,9.70
2023-05-24T11:19:25.260Z,9.95
2023-05-24T11:21:58.922Z,13.68
2023-05-24T11:27:33.800Z,11.18
2023-05-24T11:30:06.265Z,13.27
2023-05-24T11:35:11.952Z,13.27
2023-05-24T11:37:46.606Z,14.68
2023-05-24T11:40:16.764Z,15.38
2023-05-24T11:42:51.792Z,14.43
2023-05-24T11:45:24.134Z,11.98
2023-05-24T11:50:53.891Z,12.40
2023-05-24T11:53:32.965Z,13.00
2023-05-24T11:56:02.001Z,12.75
2023-05-24T11:58:53.174Z,9.45
2023-05-24T12:01:40.945Z,11.63
2023-05-24T12:04:18.872Z,11.93
2023-05-24T12:07:16.125Z,11.88
2023-05-24T12:10:31.382Z,12.70
2023-05-24T12:13:34.702Z,13.90
2023-05-24T12:16:14.842Z,11.88
2023-05-24T12:19:05.255Z,12.35
2023-05-24T12:22:55.196Z,15.80
2023-05-24T12:25:55.021Z,11.23
2023-05-24T12:28:41.345Z,11.13
2023-05-24T12:31:29.612Z,9.85
2023-05-24T12:34:07.873Z,9.65
2023-05-24T12:36:46.804Z,11.82
2023-05-24T12:42:31.359Z,10.15
2023-05-24T12:45:44.525Z,13.48
2023-05-24T12:48:29.462Z,12.00
2023-05-24T12:54:20.401Z,11.00
2023-05-24T12:56:49.751Z,12.35
2023-05-24T12:59:19.264Z,13.13
2023-05-24T13:02:27.555Z,8.98
2023-05-24T13:05:01.815Z,12.20
2023-05-24T13:07:33.072Z,12.00
2023-05-24T13:10:01.714Z,10.02
2023-05-24T13:12:29.877Z,12.10
2023-05-24T13:14:59.502Z,10.30
2023-05-24T13:17:29.458Z,10.18
2023-05-24T13:20:00.788Z,12.05
2023-05-24T13:22:29.144Z,11.15
2023-05-24T13:24:57.404Z,12.65
2023-05-24T13:30:12.599Z,11.90
2023-05-24T13:32:41.281Z,8.27
2023-05-24T13:35:12.199Z,11.52
2023-05-24T13:37:41.131Z,10.93
2023-05-24T13:40:27.065Z,10.23
2023-05-24T13:42:58.158Z,10.07
2023-05-24T13:45:30.347Z,9.85
2023-05-24T13:48:04.015Z,12.13
2023-05-24T13:50:32.678Z,8.52
2023-05-24T13:53:03.598Z,9.23
2023-05-24T13:55:34.166Z,9.43
2023-05-24T13:58:04.944Z,8.48
2023-05-24T14:00:36.194Z,9.60
2023-05-24T14:03:06.079Z,9.52
2023-05-24T14:05:34.514Z,11.68
2023-05-24T14:08:07.100Z,11.55
2023-05-24T14:10:41.904Z,11.35
2023-05-24T14:13:36.771Z,10.52
2023-05-24T14:16:06.625Z,8.50
2023-05-24T14:18:44.061Z,10.27
2023-05-24T14:21:15.474Z,11.82
2023-05-24T14:23:43.608Z,7.87
2023-05-24T14:26:17.124Z,10.95
2023-05-24T14:28:45.466Z,9.00
2023-05-24T14:31:19.422Z,12.05
2023-05-24T14:33:49.538Z,10.40
2023-05-24T14:36:18.029Z,13.27
2023-05-24T14:38:46.893Z,9.07
2023-05-24T14:41:19.347Z,11.43
2023-05-24T14:43:50.823Z,11.55
2023-05-24T14:46:21.568Z,12.67
2023-05-24T14:48:54.327Z,10.40
2023-05-24T14:51:29.724Z,9.98
2023-05-24T14:53:58.113Z,9.48
2023-05-24T14:56:28.128Z,10.48
2023-05-24T14:58:56.521Z,9.27
2023-05-24T15:01:29.038Z,10.32
2023-05-24T15:04:06.567Z,8.63
2023-05-24T15:06:48.321Z,9.88
2023-05-24T15:09:20.134Z,6.75
2023-05-24T15:11:48.444Z,9.65
2023-05-24T15:14:18.893Z,11.07
2023-05-24T15:16:51.189Z,11.95
2023-05-24T15:22:04.641Z,8.80
2023-05-24T15:24:46.941Z,10.90
2023-05-24T15:27:16.755Z,9.18
2023-05-24T15:29:54.579Z,13.98
2023-05-24T15:32:25.125Z,9.30
2023-05-24T15:34:53.341Z,10.05
2023-05-24T15:37:54.648Z,11.07
2023-05-24T15:43:54.455Z,8.82
2023-05-24T15:46:22.851Z,8.77
2023-05-24T15:49:11.111Z,11.35
2023-05-24T15:52:03.137Z,10.98
2023-05-24T15:54:53.511Z,10.60
2023-05-24T15:57:30.184Z,10.15
2023-05-24T15:59:58.641Z,9.43
2023-05-24T16:02:46.889Z,10.98
2023-05-24T16:05:22.650Z,10.80
2023-05-24T16:07:56.676Z,10.32
2023-05-24T16:10:56.051Z,7.60
2023-05-24T16:13:30.272Z,10.63
2023-05-24T16:17:01.053Z,9.20
2023-05-24T16:22:56.535Z,7.53
2023-05-24T16:25:25.795Z,10.88
2023-05-24T16:29:00.987Z,9.82
2023-05-24T16:32:11.233Z,11.13
2023-05-24T16:34:55.402Z,10.75
2023-05-24T16:37:38.887Z,9.25
2023-05-24T16:40:18.315Z,11.48
2023-05-24T16:43:07.027Z,9.77
2023-05-24T16:46:08.475Z,10.15
2023-05-24T16:49:00.638Z,11.77
2023-05-24T16:51:49.668Z,10.02
2023-05-24T16:54:32.648Z,12.75
2023-05-24T16:57:08.387Z,10.80
2023-05-24T16:59:44.037Z,9.07
2023-05-24T17:02:22.057Z,10.40
2023-05-24T17:04:56.471Z,9.40
2023-05-24T17:08:16.334Z,11.55
2023-05-24T17:11:15.849Z,9.77
2023-05-24T17:13:59.190Z,8.70
2023-05-24T17:16:57.447Z,12.18
2023-05-24T17:19:50.957Z,11.15
2023-05-24T17:22:57.524Z,10.40
2023-05-24T17:26:56.870Z,10.40
2023-05-24T17:29:54.900Z,10.98
2023-05-24T17:32:53.661Z,13.05
2023-05-24T17:35:33.709Z,9.65
2023-05-24T17:38:40.781Z,11.60
2023-05-24T17:41:45.233Z,12.52
2023-05-24T17:44:14.782Z,9.35
2023-05-24T17:46:43.919Z,7.20
2023-05-24T17:49:12.754Z,10.15
2023-05-24T17:51:48.291Z,8.98
2023-05-24T17:54:22.837Z,10.13
2023-05-24T17:56:51.646Z,13.13
2023-05-24T17:59:21.955Z,11.00
2023-05-24T18:02:14.831Z,10.65
2023-05-24T18:04:46.025Z,9.10
2023-05-24T18:07:17.171Z,10.43
2023-05-24T18:10:14.997Z,10.15
2023-05-24T18:20:56.639Z,7.57
2023-05-24T18:23:25.115Z,8.82
2023-05-24T18:26:00.378Z,9.57
2023-05-24T18:32:14.432Z,10.90
2023-05-24T18:34:47.856Z,9.27
2023-05-24T18:38:00.170Z,8.15
2023-05-24T18:47:05.277Z,10.23
2023-05-24T18:49:34.674Z,8.80
2023-05-24T18:55:56.120Z,10.75
2023-05-24T20:56:53.062Z,9.07
2023-05-24T20:59:39.048Z,7.88
2023-05-24T21:02:40.544Z,10.68
2023-05-24T22:21:24.061Z,11.60
